Time;durP1;ratioP1;P1;durP2;ratioP2;P2;SDS_P1;SDS_P2;PMS_P1;PMS_P2;Temp;Humidity;BMP_temperature;BMP_pressure;BME280_temperature;BME280_humidity;BME280_pressure;Samples;Min_cycle;Max_cycle;Signal;HPM_P1;HPM_P2
2022/03/11 00:00:42;;;;;;;14.07;6.57;;;;;;;-4.13;97.67;101531.25;4988979;28;20117;-76
2022/03/11 00:03:10;;;;;;;10.17;5.80;;;;;;;-3.99;97.12;101564.69;4988922;28;20129;-76
2022/03/11 00:05:37;;;;;;;15.43;10.10;;;;;;;-4.12;97.30;101573.41;4953988;28;20055;-74
2022/03/11 00:08:03;;;;;;;10.63;6.47;;;;;;;-4.12;97.87;101553.22;4970354;28;20042;-74
2022/03/11 00:10:29;;;;;;;14.93;12.43;;;;;;;-4.02;97.40;101562.72;4970314;28;20482;-76
2022/03/11 00:12:55;;;;;;;10.83;6.47;;;;;;;-4.09;97.36;101548.53;4969869;28;20501;-76
2022/03/11 00:15:40;;;;;;;15.10;7.77;;;;;;;-3.99;96.57;101549.56;4953667;28;20085;-77
2022/03/11 00:18:06;;;;;;;15.13;7.00;;;;;;;-3.97;96.78;101548.13;4931593;29;20043;-75
2022/03/11 00:20:32;;;;;;;11.97;6.33;;;;;;;-4.10;97.08;101545.81;4931572;29;20048;-75
2022/03/11 00:22:58;;;;;;;11.77;6.40;;;;;;;-4.15;97.80;101554.50;4931479;29;20586;-74
2022/03/11 00:25:23;;;;;;;11.13;6.73;;;;;;;-4.31;97.53;101527.56;4966549;28;20126;-75
2022/03/11 00:27:50;;;;;;;11.27;7.10;;;;;;;-4.12;96.69;101538.09;4953428;28;20145;-76
2022/03/11 00:30:16;;;;;;;13.90;7.47;;;;;;;-4.02;96.69;101555.16;4969900;28;20037;-74
2022/03/11 00:32:42;;;;;;;15.67;8.57;;;;;;;-4.62;96.88;101463.59;4969626;28;20121;-72
2022/03/11 00:35:09;;;;;;;15.60;7.80;;;;;;;-4.04;97.12;101563.28;4969678;28;20058;-73
2022/03/11 00:37:36;;;;;;;13.50;8.10;;;;;;;-4.13;97.25;101555.59;4969538;28;20133;-73
2022/03/11 00:40:02;;;;;;;12.70;6.70;;;;;;;-4.00;96.71;101570.47;4969513;28;20038;-73
2022/03/11 00:42:28;;;;;;;12.40;7.13;;;;;;;-4.08;97.13;101578.06;4969110;28;20587;-76
2022/03/11 00:44:53;;;;;;;11.87;7.00;;;;;;;-4.38;96.63;101522.53;4969891;28;20055;-76
2022/03/11 00:47:19;;;;;;;12.30;7.27;;;;;;;-4.44;95.96;101507.59;4969495;28;20039;-75
2022/03/11 00:49:45;;;;;;;15.17;7.10;;;;;;;-4.46;95.62;101503.13;5001970;28;20073;-73
2022/03/11 00:52:10;;;;;;;16.03;9.03;;;;;;;-4.13;95.56;101566.56;4993616;28;20113;-76
2022/03/11 00:54:36;;;;;;;14.80;7.30;;;;;;;-4.22;95.34;101555.44;5010875;28;20025;-79
2022/03/11 00:57:03;;;;;;;12.83;7.10;;;;;;;-4.11;94.54;101575.19;4993360;28;20488;-77
2022/03/11 00:59:29;;;;;;;18.77;11.23;;;;;;;-4.10;94.89;101571.03;5006733;28;20032;-77
2022/03/11 01:01:54;;;;;;;12.73;7.50;;;;;;;-4.10;94.57;101582.03;5001256;28;20030;-77
2022/03/11 01:04:20;;;;;;;12.77;7.07;;;;;;;-4.26;95.01;101569.31;5030738;28;20030;-77
2022/03/11 01:06:46;;;;;;;17.47;7.83;;;;;;;-4.26;95.69;101589.50;5012773;28;20029;-76
2022/03/11 01:09:11;;;;;;;18.10;7.93;;;;;;;-4.26;95.24;101575.97;5012590;28;20035;-77
2022/03/11 01:11:37;;;;;;;19.00;8.70;;;;;;;-4.31;95.51;101578.00;5012883;28;20076;-78
2022/03/11 01:14:03;;;;;;;14.10;7.97;;;;;;;-4.58;95.14;101556.44;5011671;28;20114;-77
2022/03/11 01:16:29;;;;;;;16.50;11.77;;;;;;;-4.37;95.15;101572.25;5030600;28;20049;-77
2022/03/11 01:18:55;;;;;;;13.37;8.40;;;;;;;-4.38;94.53;101567.91;5029971;28;20610;-77
2022/03/11 01:21:20;;;;;;;13.10;7.53;;;;;;;-4.42;94.22;101566.66;5012638;28;20491;-77
2022/03/11 01:23:46;;;;;;;14.03;7.37;;;;;;;-4.39;93.45;101566.13;5030488;28;20172;-80
2022/03/11 01:26:12;;;;;;;12.70;6.57;;;;;;;-4.31;92.40;101582.09;5012679;28;20033;-77
2022/03/11 01:28:42;;;;;;;12.27;7.17;;;;;;;-4.39;93.69;101592.25;5030523;28;20037;-77
2022/03/11 01:31:11;;;;;;;11.73;6.60;;;;;;;-4.57;93.42;101577.53;5030448;28;20037;-77
2022/03/11 01:33:39;;;;;;;10.50;6.03;;;;;;;-4.65;95.23;101598.41;5012360;28;20038;-72
2022/03/11 01:36:05;;;;;;;11.47;6.93;;;;;;;-4.66;96.26;101586.53;5012265;28;20030;-78
2022/03/11 01:38:31;;;;;;;11.60;6.33;;;;;;;-4.82;96.22;101553.63;5030169;28;20037;-74
2022/03/11 01:40:56;;;;;;;14.00;6.93;;;;;;;-4.68;95.51;101572.88;5030139;28;20115;-75
2022/03/11 01:43:22;;;;;;;11.57;6.27;;;;;;;-4.66;95.55;101574.84;5030306;28;20120;-77
2022/03/11 01:45:47;;;;;;;9.20;5.83;;;;;;;-4.82;96.38;101561.19;5012351;28;20667;-79
2022/03/11 01:48:13;;;;;;;12.40;6.67;;;;;;;-4.66;95.51;101572.34;5029918;28;20037;-77
2022/03/11 01:50:40;;;;;;;12.33;6.50;;;;;;;-4.68;95.17;101566.19;5012270;28;20040;-79
2022/03/11 01:53:10;;;;;;;17.33;10.40;;;;;;;-4.71;95.25;101568.34;5013191;28;20505;-81
2022/03/11 01:55:36;;;;;;;18.60;8.50;;;;;;;-4.62;95.13;101591.22;5015995;28;20033;-76
2022/03/11 01:58:03;;;;;;;15.93;7.27;;;;;;;-4.65;94.68;101578.25;5016083;28;20471;-74
2022/03/11 02:00:29;;;;;;;18.33;6.97;;;;;;;-4.64;93.76;101592.66;5033965;28;20037;-73
2022/03/11 02:02:55;;;;;;;16.57;6.20;;;;;;;-4.70;93.86;101580.22;5016148;28;20559;-74
2022/03/11 02:05:20;;;;;;;15.33;6.93;;;;;;;-4.77;93.14;101566.03;5032912;28;20087;-74
2022/03/11 02:07:48;;;;;;;12.40;8.63;;;;;;;-4.73;93.53;101573.22;5033612;28;20030;-73
2022/03/11 02:10:13;;;;;;;10.93;6.20;;;;;;;-4.68;92.94;101575.41;5033839;28;20029;-74
2022/03/11 02:12:39;;;;;;;12.80;6.00;;;;;;;-4.64;93.20;101588.50;5033904;28;20040;-73
2022/03/11 02:15:06;;;;;;;10.77;6.00;;;;;;;-4.62;93.40;101586.19;5033838;28;20482;-73
2022/03/11 02:17:31;;;;;;;15.63;6.63;;;;;;;-4.72;93.36;101577.53;5033010;28;20034;-73
2022/03/11 02:19:57;;;;;;;11.77;5.87;;;;;;;-4.68;93.17;101588.88;5033435;28;20079;-73
2022/03/11 02:22:24;;;;;;;9.67;5.70;;;;;;;-4.75;93.37;101588.88;5033287;28;20101;-73
2022/03/11 02:24:52;;;;;;;10.73;6.40;;;;;;;-4.71;92.83;101593.56;5033510;28;20025;-73
2022/03/11 02:27:17;;;;;;;8.63;5.13;;;;;;;-4.70;92.05;101592.84;5033188;28;20025;-73
2022/03/11 02:29:43;;;;;;;10.63;5.67;;;;;;;-4.71;91.50;101597.00;5033228;28;20028;-72
2022/03/11 02:32:09;;;;;;;10.43;5.53;;;;;;;-4.74;91.67;101580.63;5033378;28;20017;-73
2022/03/11 02:34:37;;;;;;;14.03;5.77;;;;;;;-4.75;90.86;101573.78;5033147;28;20017;-74
2022/03/11 02:37:04;;;;;;;10.65;5.72;;;;;;;-4.73;90.27;101603.44;5014840;28;20112;-73
2022/03/11 02:39:29;;;;;;;11.83;7.53;;;;;;;-4.82;91.70;101615.00;5015121;28;20026;-75
2022/03/11 02:41:55;;;;;;;10.13;6.10;;;;;;;-4.84;91.33;101592.88;5015588;28;20026;-74
2022/03/11 02:44:21;;;;;;;11.37;6.33;;;;;;;-4.92;91.45;101594.47;5033397;28;20776;-73
2022/03/11 02:46:46;;;;;;;11.93;6.43;;;;;;;-4.90;90.64;101598.09;5033154;28;20032;-75
2022/03/11 02:49:12;;;;;;;12.90;6.20;;;;;;;-4.93;89.45;101612.84;5014939;28;20025;-74
2022/03/11 02:51:37;;;;;;;15.17;6.77;;;;;;;-5.07;90.05;101589.47;5033015;28;20468;-74
2022/03/11 02:54:03;;;;;;;15.00;7.60;;;;;;;-5.12;90.00;101577.97;5033243;28;20558;-75
2022/03/11 02:56:28;;;;;;;11.83;7.60;;;;;;;-4.93;90.35;101617.88;5015250;28;20052;-75
2022/03/11 02:58:54;;;;;;;11.87;6.33;;;;;;;-4.93;90.44;101628.84;5015185;28;20026;-75
2022/03/11 03:01:19;;;;;;;17.03;11.03;;;;;;;-4.89;90.32;101627.59;5032930;28;20038;-74
2022/03/11 03:03:45;;;;;;;8.90;5.43;;;;;;;-5.10;91.62;101614.25;5032649;28;20427;-77
2022/03/11 03:06:10;;;;;;;10.07;5.70;;;;;;;-5.04;92.29;101612.47;5031879;28;20026;-78
2022/03/11 03:08:36;;;;;;;10.40;5.43;;;;;;;-4.88;93.09;101634.44;5015035;28;20029;-76
2022/03/11 03:11:02;;;;;;;11.53;6.10;;;;;;;-4.84;91.96;101640.72;5032567;28;20415;-74
2022/03/11 03:13:28;;;;;;;10.87;6.10;;;;;;;-4.82;92.23;101635.16;5032636;28;20033;-75
2022/03/11 03:15:53;;;;;;;9.33;5.40;;;;;;;-4.83;92.39;101635.88;5032409;28;20492;-75
2022/03/11 03:18:19;;;;;;;9.63;5.93;;;;;;;-4.92;92.52;101642.31;5032082;28;20098;-76
2022/03/11 03:20:45;;;;;;;9.63;5.83;;;;;;;-5.08;92.68;101637.13;5032420;28;20025;-77
2022/03/11 03:23:10;;;;;;;12.03;6.43;;;;;;;-5.14;92.75;101638.94;5014672;28;20025;-76
2022/03/11 03:25:36;;;;;;;11.47;6.00;;;;;;;-5.18;92.38;101634.22;5032578;28;20021;-75
2022/03/11 03:28:01;;;;;;;10.83;5.73;;;;;;;-5.34;93.81;101623.97;5032461;28;20036;-76
2022/03/11 03:30:26;;;;;;;9.10;5.30;;;;;;;-5.27;93.31;101650.06;5014833;28;20025;-76
2022/03/11 03:32:52;;;;;;;9.77;5.80;;;;;;;-5.28;93.50;101642.34;5032200;28;20021;-76
2022/03/11 03:35:17;;;;;;;10.13;5.77;;;;;;;-5.25;93.30;101650.22;5032204;28;20479;-76
2022/03/11 03:37:43;;;;;;;10.83;6.10;;;;;;;-5.23;93.18;101659.75;5014322;28;20018;-76
2022/03/11 03:40:09;;;;;;;10.97;5.87;;;;;;;-5.30;93.05;101654.72;5032232;28;20025;-76
2022/03/11 03:42:35;;;;;;;16.13;7.23;;;;;;;-5.27;92.93;101656.69;5031780;28;20561;-76
2022/03/11 03:45:01;;;;;;;14.57;6.47;;;;;;;-5.29;92.88;101645.56;5032162;28;20468;-77
2022/03/11 03:47:27;;;;;;;13.87;6.67;;;;;;;-5.26;92.38;101659.41;5013949;28;20029;-75
2022/03/11 03:49:52;;;;;;;11.03;6.50;;;;;;;-5.30;92.11;101653.81;5032122;28;20083;-75
2022/03/11 03:52:18;;;;;;;9.90;6.37;;;;;;;-5.25;90.58;101663.72;5014047;28;20021;-76
2022/03/11 03:54:44;;;;;;;11.17;6.53;;;;;;;-5.29;90.09;101654.00;5032015;28;20109;-77
2022/03/11 03:57:10;;;;;;;12.97;6.00;;;;;;;-5.29;90.59;101654.00;5031805;28;20025;-78
2022/03/11 03:59:37;;;;;;;15.67;6.93;;;;;;;-5.26;90.60;101651.88;5013936;28;20510;-77
2022/03/11 04:02:03;;;;;;;14.33;6.30;;;;;;;-5.29;90.66;101666.59;5031550;28;20064;-77
2022/03/11 04:04:28;;;;;;;15.40;7.23;;;;;;;-5.39;90.88;101641.94;5031847;28;20061;-77
2022/03/11 04:06:54;;;;;;;13.57;8.00;;;;;;;-5.53;90.71;101620.16;5031777;28;20399;-78
2022/03/11 04:09:19;;;;;;;11.50;6.23;;;;;;;-5.53;91.37;101622.69;5013608;28;20063;-77
2022/03/11 04:11:48;;;;;;;11.00;6.47;;;;;;;-5.42;91.88;101646.63;5031579;28;20037;-77
2022/03/11 04:14:13;;;;;;;10.73;6.23;;;;;;;-5.38;92.17;101652.91;5013624;28;20393;-76
2022/03/11 04:16:39;;;;;;;9.60;5.57;;;;;;;-5.65;93.17;101658.94;5029843;28;20120;-76
2022/03/11 04:19:04;;;;;;;13.77;6.37;;;;;;;-5.65;93.18;101643.84;5031058;28;20029;-76
2022/03/11 04:21:30;;;;;;;17.27;8.40;;;;;;;-5.58;92.66;101650.50;5031241;28;20041;-75
2022/03/11 04:23:56;;;;;;;25.43;10.93;;;;;;;-5.62;92.84;101660.94;5031498;28;20041;-75
2022/03/11 04:26:21;;;;;;;22.27;11.00;;;;;;;-5.55;93.09;101666.00;5031355;28;20033;-75
2022/03/11 04:28:47;;;;;;;25.07;11.10;;;;;;;-5.58;92.91;101670.63;5013336;28;20040;-75
2022/03/11 04:31:13;;;;;;;23.63;11.67;;;;;;;-5.61;92.54;101660.22;5030565;28;20416;-75
2022/03/11 04:33:40;;;;;;;17.87;9.47;;;;;;;-5.54;91.63;101665.28;5031000;28;20078;-75
2022/03/11 04:36:06;;;;;;;18.20;9.27;;;;;;;-5.59;91.42;101668.88;5013261;28;20465;-75
2022/03/11 04:38:33;;;;;;;15.03;7.60;;;;;;;-5.85;90.03;101624.72;5030736;28;20029;-75
2022/03/11 04:40:58;;;;;;;14.80;6.73;;;;;;;-5.62;89.86;101658.41;5031142;28;20044;-75
2022/03/11 04:43:24;;;;;;;12.33;6.30;;;;;;;-5.68;89.54;101673.69;5031149;28;20033;-76
2022/03/11 04:45:50;;;;;;;12.07;5.70;;;;;;;-5.72;90.45;101662.34;5030370;28;20030;-76
2022/03/11 04:48:16;;;;;;;10.53;5.53;;;;;;;-5.77;90.59;101662.50;5008386;28;20037;-76
2022/03/11 04:50:41;;;;;;;9.70;5.20;;;;;;;-5.82;91.11;101687.06;5021675;28;20034;-75
2022/03/11 04:53:07;;;;;;;9.93;5.87;;;;;;;-5.79;89.63;101664.84;5032494;28;20040;-75
2022/03/11 04:55:35;;;;;;;11.90;6.80;;;;;;;-5.91;89.98;101646.63;5031408;28;20025;-75
2022/03/11 04:58:00;;;;;;;9.47;5.73;;;;;;;-5.74;89.73;101696.47;5024464;28;20124;-76
2022/03/11 05:00:46;;;;;;;10.97;5.87;;;;;;;-5.63;87.93;101691.81;5031333;28;20116;-75
2022/03/11 05:03:13;;;;;;;12.50;6.77;;;;;;;-5.64;88.45;101688.41;4988725;28;20047;-75
2022/03/11 05:05:38;;;;;;;9.40;4.67;;;;;;;-5.83;88.16;101649.19;4988922;28;20050;-75
2022/03/11 05:08:05;;;;;;;10.23;5.43;;;;;;;-5.58;87.57;101688.25;4988689;28;20639;-76
2022/03/11 05:10:30;;;;;;;13.20;5.03;;;;;;;-5.49;86.01;101696.03;4988520;28;20692;-75
2022/03/11 05:12:56;;;;;;;13.00;5.20;;;;;;;-5.85;85.78;101629.75;4988587;28;20125;-75
2022/03/11 05:15:24;;;;;;;10.30;5.93;;;;;;;-5.62;85.95;101656.81;4990966;28;20058;-74
2022/03/11 05:17:50;;;;;;;8.83;4.87;;;;;;;-5.50;85.74;101679.13;4990055;28;20042;-74
2022/03/11 05:20:15;;;;;;;9.17;4.73;;;;;;;-5.29;83.63;101705.97;4988553;28;20053;-73
2022/03/11 05:22:42;;;;;;;8.83;4.90;;;;;;;-5.28;84.44;101703.63;4969032;28;20071;-74
2022/03/11 05:25:08;;;;;;;8.63;5.50;;;;;;;-5.46;82.85;101662.03;4969185;28;20042;-75
2022/03/11 05:27:34;;;;;;;9.90;5.10;;;;;;;-5.13;83.28;101708.72;4969098;28;20576;-74
2022/03/11 05:30:00;;;;;;;9.07;4.80;;;;;;;-5.09;81.64;101706.72;4972949;28;20026;-74
2022/03/11 05:32:25;;;;;;;11.60;4.77;;;;;;;-5.09;81.82;101696.66;4973352;28;20081;-74
2022/03/11 05:34:51;;;;;;;7.27;3.90;;;;;;;-5.59;81.68;101608.47;5003921;28;20041;-74
2022/03/11 05:37:16;;;;;;;9.33;5.17;;;;;;;-5.07;81.69;101680.13;5012263;28;20575;-74
2022/03/11 05:39:42;;;;;;;15.13;6.30;;;;;;;-4.85;81.66;101702.78;4995601;28;20045;-74
2022/03/11 05:42:08;;;;;;;14.63;5.37;;;;;;;-5.01;81.00;101682.44;5011797;28;20048;-75
2022/03/11 05:44:34;;;;;;;13.27;5.13;;;;;;;-4.93;80.94;101708.56;5012246;28;20034;-75
2022/03/11 05:47:00;;;;;;;9.93;5.00;;;;;;;-4.95;81.61;101672.19;5011802;28;20137;-74
2022/03/11 05:49:26;;;;;;;10.87;5.63;;;;;;;-4.64;80.65;101714.50;5011915;28;20046;-74
2022/03/11 05:51:51;;;;;;;13.70;5.97;;;;;;;-4.90;81.25;101677.09;5011860;28;20045;-74
2022/03/11 05:54:17;;;;;;;10.67;6.37;;;;;;;-4.65;81.08;101716.84;5028642;28;20072;-74
2022/03/11 05:56:43;;;;;;;10.60;5.40;;;;;;;-4.53;81.14;101708.19;5034466;28;20029;-75
2022/03/11 05:59:08;;;;;;;10.53;4.70;;;;;;;-4.57;79.95;101716.13;5034474;28;20037;-74
2022/03/11 06:01:36;;;;;;;10.93;5.77;;;;;;;-4.60;80.88;101715.75;5034045;28;20026;-74
2022/03/11 06:04:03;;;;;;;13.27;6.50;;;;;;;-4.73;80.96;101673.13;5016599;28;20026;-73
2022/03/11 06:06:30;;;;;;;12.10;5.23;;;;;;;-4.45;80.03;101715.06;5034348;28;20036;-73
2022/03/11 06:08:57;;;;;;;11.73;5.03;;;;;;;-4.45;80.86;101717.56;5032358;28;20028;-75
2022/03/11 06:11:23;;;;;;;17.03;9.63;;;;;;;-4.46;80.81;101710.72;5033483;28;20064;-74
2022/03/11 06:13:49;;;;;;;12.90;5.93;;;;;;;-4.24;80.68;101730.84;5033431;28;20574;-74
2022/03/11 06:16:15;;;;;;;19.10;6.73;;;;;;;-4.22;80.38;101716.81;5033503;28;20057;-75
2022/03/11 06:18:41;;;;;;;8.80;4.60;;;;;;;-4.21;78.04;101728.72;5033815;28;20029;-74
2022/03/11 06:21:08;;;;;;;11.30;6.07;;;;;;;-4.18;78.29;101721.47;5033961;28;20460;-75
2022/03/11 06:23:35;;;;;;;14.17;6.37;;;;;;;-4.13;78.24;101719.50;5033744;28;20125;-74
2022/03/11 06:26:01;;;;;;;10.23;5.07;;;;;;;-3.99;78.89;101728.66;5033769;28;20029;-75
2022/03/11 06:28:26;;;;;;;18.93;7.63;;;;;;;-4.13;76.08;101732.13;5033474;28;20033;-74
2022/03/11 06:30:52;;;;;;;12.07;4.93;;;;;;;-3.96;76.97;101736.59;5033407;28;20036;-75
2022/03/11 06:33:20;;;;;;;11.03;4.90;;;;;;;-4.16;76.72;101725.09;5033371;28;20030;-75
2022/03/11 06:35:46;;;;;;;8.10;4.23;;;;;;;-4.11;75.66;101736.59;5015115;28;20124;-74
2022/03/11 06:38:11;;;;;;;10.73;5.13;;;;;;;-4.16;74.36;101734.25;5033214;28;20112;-74
2022/03/11 06:40:37;;;;;;;10.93;5.13;;;;;;;-4.02;75.28;101736.78;5032274;28;20033;-74
2022/03/11 06:43:03;;;;;;;11.77;5.30;;;;;;;-3.88;76.30;101738.34;5033425;28;20029;-74
2022/03/11 06:45:28;;;;;;;9.23;5.30;;;;;;;-4.13;74.64;101722.91;5033255;28;20376;-75
2022/03/11 06:47:55;;;;;;;7.97;4.10;;;;;;;-4.09;75.08;101744.34;5033279;28;20042;-74
2022/03/11 06:50:21;;;;;;;7.50;4.50;;;;;;;-4.18;75.38;101746.69;5033074;28;20037;-75
2022/03/11 06:52:46;;;;;;;9.20;5.17;;;;;;;-4.14;73.75;101745.44;5033130;28;20083;-74
2022/03/11 06:55:12;;;;;;;13.37;5.60;;;;;;;-4.14;75.31;101742.91;5032989;28;20048;-74
2022/03/11 06:57:38;;;;;;;10.03;4.67;;;;;;;-4.26;76.03;101694.47;5033110;28;20514;-75
2022/03/11 07:00:06;;;;;;;11.93;6.10;;;;;;;-3.95;75.41;101749.38;5032988;28;20026;-75
2022/03/11 07:02:32;;;;;;;8.83;5.37;;;;;;;-4.24;74.93;101699.00;5015061;28;20042;-75
2022/03/11 07:04:57;;;;;;;8.83;4.73;;;;;;;-3.90;75.85;101750.78;5032483;28;20408;-75
2022/03/11 07:07:23;;;;;;;8.63;4.03;;;;;;;-3.86;73.92;101747.00;5043764;28;20041;-75
2022/03/11 07:09:49;;;;;;;9.50;4.90;;;;;;;-3.83;74.40;101751.50;5037299;28;20041;-75
2022/03/11 07:12:14;;;;;;;10.43;4.87;;;;;;;-3.71;75.83;101750.38;5032819;28;20087;-75
2022/03/11 07:14:41;;;;;;;12.30;7.43;;;;;;;-3.95;74.33;101682.88;5032588;28;20111;-75
2022/03/11 07:17:07;;;;;;;13.53;5.67;;;;;;;-3.63;74.64;101731.94;5033090;28;20041;-75
2022/03/11 07:19:34;;;;;;;9.17;4.97;;;;;;;-3.91;73.32;101715.31;5032967;28;20063;-75
2022/03/11 07:22:02;;;;;;;8.37;4.90;;;;;;;-3.82;72.36;101746.63;5032392;28;20443;-75
2022/03/11 07:24:27;;;;;;;9.13;4.57;;;;;;;-3.87;71.52;101727.53;5032563;28;20037;-76
2022/03/11 07:26:53;;;;;;;6.67;4.03;;;;;;;-4.13;71.26;101691.75;5031234;28;20029;-75
2022/03/11 07:29:19;;;;;;;8.93;4.33;;;;;;;-3.94;72.02;101728.47;5032566;28;20060;-75
2022/03/11 07:31:45;;;;;;;8.10;4.60;;;;;;;-3.61;74.34;101742.25;5032296;28;20100;-74
2022/03/11 07:34:11;;;;;;;8.60;4.17;;;;;;;-3.63;72.54;101728.53;5032631;28;20392;-74
2022/03/11 07:36:36;;;;;;;9.10;4.50;;;;;;;-3.62;71.26;101733.75;5032008;28;20033;-75
2022/03/11 07:39:07;;;;;;;7.97;4.53;;;;;;;-3.63;70.49;101678.94;5031816;28;20393;-75
2022/03/11 07:41:33;;;;;;;7.83;4.13;;;;;;;-3.34;69.62;101721.75;5027878;28;20029;-75
2022/03/11 07:43:58;;;;;;;10.73;4.20;;;;;;;-3.15;68.46;101717.13;5031979;28;20026;-76
2022/03/11 07:46:25;;;;;;;9.83;4.90;;;;;;;-3.15;69.31;101714.59;5032297;28;20389;-75
2022/03/11 07:48:50;;;;;;;9.63;4.47;;;;;;;-2.96;68.66;101720.06;5032245;28;20395;-76
2022/03/11 07:51:17;;;;;;;17.70;6.13;;;;;;;-2.67;67.44;101721.50;5031414;28;20104;-76
2022/03/11 07:53:43;;;;;;;11.43;5.73;;;;;;;-2.30;67.10;101723.88;5014181;28;20085;-76
2022/03/11 07:56:10;;;;;;;11.23;5.93;;;;;;;-2.16;63.73;101738.00;5032151;28;20123;-76
2022/03/11 07:58:37;;;;;;;8.40;5.20;;;;;;;-2.10;62.95;101714.13;5031921;28;20029;-75
2022/03/11 08:01:04;;;;;;;13.20;6.30;;;;;;;-2.04;64.62;101738.44;5031884;28;20116;-75
2022/03/11 08:03:30;;;;;;;12.43;7.27;;;;;;;-1.90;64.24;101742.47;5031738;28;20037;-76
2022/03/11 08:05:56;;;;;;;13.70;6.60;;;;;;;-1.84;63.99;101730.47;5031874;28;20030;-75
2022/03/11 08:08:21;;;;;;;12.87;6.37;;;;;;;-1.70;63.73;101731.03;5015776;28;20083;-75
2022/03/11 08:10:48;;;;;;;17.23;9.27;;;;;;;-1.93;64.09;101675.41;5040222;28;20024;-75
2022/03/11 08:13:13;;;;;;;12.03;6.17;;;;;;;-1.80;62.03;101721.56;5041817;28;20021;-75
2022/03/11 08:15:39;;;;;;;23.30;13.63;;;;;;;-1.69;62.35;101722.72;5040730;28;20492;-75
2022/03/11 08:18:04;;;;;;;8.63;4.97;;;;;;;-1.82;61.81;101717.97;5035329;28;20037;-75
2022/03/11 08:20:30;;;;;;;10.43;7.13;;;;;;;-1.92;63.73;101722.78;4978774;28;20058;-74
2022/03/11 08:22:56;;;;;;;14.67;8.33;;;;;;;-1.67;65.27;101718.69;4982499;28;20128;-75
2022/03/11 08:25:26;;;;;;;12.13;6.23;;;;;;;-1.51;63.21;101714.53;4978456;28;20042;-75
2022/03/11 08:27:56;;;;;;;11.50;5.27;;;;;;;-1.46;61.87;101717.53;4977549;28;20030;-75
2022/03/11 08:30:22;;;;;;;11.77;5.13;;;;;;;-1.88;61.86;101675.19;4974084;28;20046;-75
2022/03/11 08:32:48;;;;;;;17.47;8.03;;;;;;;-1.58;63.98;101717.16;4976610;28;20130;-75
2022/03/11 08:35:17;;;;;;;11.73;6.10;;;;;;;-1.23;62.84;101721.59;4977800;28;20126;-75
2022/03/11 08:37:44;;;;;;;12.07;6.13;;;;;;;-0.89;63.54;101710.75;4973035;28;20041;-75
2022/03/11 08:40:11;;;;;;;11.90;6.07;;;;;;;-0.98;63.91;101687.00;4969817;28;20058;-75
2022/03/11 08:42:38;;;;;;;7.83;3.97;;;;;;;-1.79;60.21;101660.97;4973873;28;20117;-75
2022/03/11 08:45:05;;;;;;;8.20;4.27;;;;;;;-1.70;62.95;101720.91;4984744;28;20041;-75
2022/03/11 08:47:31;;;;;;;10.53;5.97;;;;;;;-1.48;62.89;101719.91;4975437;28;20082;-75
2022/03/11 08:49:57;;;;;;;25.60;11.03;;;;;;;-1.37;64.30;101717.59;4979575;28;20034;-74
2022/03/11 08:52:25;;;;;;;9.60;5.50;;;;;;;-1.28;65.19;101713.50;5032296;28;20045;-75
2022/03/11 08:54:51;;;;;;;10.37;5.10;;;;;;;-1.07;65.28;101716.44;5034450;28;20025;-74
2022/03/11 08:57:16;;;;;;;7.83;4.37;;;;;;;-1.33;60.97;101704.53;5033948;28;20033;-75
2022/03/11 08:59:42;;;;;;;9.27;4.23;;;;;;;-1.23;59.25;101714.88;5034566;28;20083;-75
2022/03/11 09:02:28;;;;;;;8.73;4.23;;;;;;;-1.18;62.08;101690.91;5031639;28;20037;-75
2022/03/11 09:04:54;;;;;;;8.87;4.53;;;;;;;-1.34;61.54;101707.78;4998754;28;20096;-75
2022/03/11 09:07:20;;;;;;;9.77;4.80;;;;;;;-1.66;60.50;101658.09;4997827;28;20042;-74
2022/03/11 09:09:45;;;;;;;9.03;4.70;;;;;;;-1.45;61.71;101643.34;4997263;28;20594;-75
2022/03/11 09:12:11;;;;;;;9.03;4.13;;;;;;;-0.99;59.11;101708.91;4999360;28;20088;-74
2022/03/11 09:14:38;;;;;;;8.27;4.40;;;;;;;-1.26;59.87;101711.13;4996999;28;20042;-75
2022/03/11 09:17:03;;;;;;;8.30;4.10;;;;;;;-1.23;59.19;101699.66;4998494;28;20408;-75
2022/03/11 09:19:29;;;;;;;9.23;5.20;;;;;;;-1.56;58.28;101703.00;4998426;28;20042;-75
2022/03/11 09:21:54;;;;;;;7.47;4.03;;;;;;;-1.81;60.07;101606.75;4997150;28;20038;-74
2022/03/11 09:24:20;;;;;;;8.90;4.27;;;;;;;-1.24;59.69;101696.97;4998757;28;20045;-75
2022/03/11 09:26:47;;;;;;;8.67;4.30;;;;;;;-0.92;60.07;101694.31;4994999;28;20108;-75
2022/03/11 09:29:13;;;;;;;12.70;6.30;;;;;;;-0.70;59.41;101697.41;4996723;28;20096;-74
2022/03/11 09:31:38;;;;;;;11.77;4.13;;;;;;;-0.57;57.05;101695.41;4990362;28;20043;-74
2022/03/11 09:34:04;;;;;;;11.87;4.53;;;;;;;-0.64;54.50;101695.50;5006725;28;20042;-75
2022/03/11 09:36:29;;;;;;;9.67;4.03;;;;;;;-0.36;57.78;101691.59;5037984;28;20068;-74
2022/03/11 09:38:55;;;;;;;13.00;4.17;;;;;;;-0.25;53.94;101687.59;5049016;28;20033;-74
2022/03/11 09:41:20;;;;;;;14.60;5.03;;;;;;;-0.35;54.36;101680.69;5048580;28;20032;-75
2022/03/11 09:43:46;;;;;;;11.37;5.77;;;;;;;-0.19;53.25;101689.81;4999893;28;20045;-74
2022/03/11 09:46:14;;;;;;;8.23;3.87;;;;;;;-0.10;49.52;101672.06;5027975;28;20064;-75
2022/03/11 09:48:41;;;;;;;6.97;3.97;;;;;;;-0.15;50.46;101679.22;5029022;28;20028;-74
2022/03/11 09:51:10;;;;;;;10.93;3.80;;;;;;;0.07;51.00;101664.47;5011666;28;20029;-74
2022/03/11 09:53:35;;;;;;;8.70;4.37;;;;;;;0.30;53.82;101648.06;5029553;28;20087;-74
2022/03/11 09:56:02;;;;;;;8.97;4.20;;;;;;;0.32;50.73;101677.03;5031490;28;20587;-72
2022/03/11 09:58:28;;;;;;;7.00;4.40;;;;;;;-0.14;49.05;101667.44;5028794;28;20080;-79
2022/03/11 10:00:54;;;;;;;8.53;4.20;;;;;;;0.24;52.56;101672.88;5028969;28;20488;-76
2022/03/11 10:03:22;;;;;;;9.57;3.87;;;;;;;0.35;49.19;101667.19;5030624;28;20123;-75
2022/03/11 10:05:53;;;;;;;7.63;3.53;;;;;;;0.40;50.41;101658.38;5030577;28;20484;-77
2022/03/11 10:08:46;;;;;;;11.23;3.67;;;;;;;0.65;46.78;101660.75;5029474;28;20090;-78
2022/03/11 10:11:24;;;;;;;10.13;3.37;;;;;;;0.17;50.78;101657.78;5028717;28;20551;-74
2022/03/11 10:13:54;;;;;;;8.30;4.23;;;;;;;-0.29;51.22;101642.34;5028944;28;20061;-76
2022/03/11 10:16:22;;;;;;;9.80;4.47;;;;;;;-0.39;52.35;101655.75;5032614;28;20740;-74
2022/03/11 10:19:06;;;;;;;8.17;4.30;;;;;;;-0.43;52.72;101635.00;5032282;28;20139;-74
2022/03/11 10:21:40;;;;;;;9.80;4.47;;;;;;;-0.68;50.85;101591.97;5030972;28;20045;-74
2022/03/11 10:24:10;;;;;;;6.97;2.97;;;;;;;-0.15;53.47;101648.78;5031759;28;20037;-72
2022/03/11 10:26:35;;;;;;;;;;;;;;;-0.27;52.59;101647.59;5025401;28;20044;-74
2022/03/11 10:29:03;;;;;;;8.13;3.60;;;;;;;-0.45;49.42;101644.09;5032196;28;19917;-74
2022/03/11 10:31:33;;;;;;;7.60;4.60;;;;;;;-0.34;49.98;101630.84;5032699;28;20025;-73
2022/03/11 10:34:11;;;;;;;6.87;3.80;;;;;;;0.15;49.01;101644.94;5023990;28;20034;-74
2022/03/11 10:36:37;;;;;;;9.30;4.10;;;;;;;0.35;51.84;101629.09;5032698;28;20029;-73
2022/03/11 10:39:21;;;;;;;9.73;3.70;;;;;;;0.21;50.26;101637.00;5032638;28;20029;-74
2022/03/11 10:41:50;;;;;;;8.53;3.60;;;;;;;0.59;51.16;101638.16;5033215;28;20060;-74
2022/03/11 10:44:19;;;;;;;8.45;4.03;;;;;;;0.62;49.11;101613.06;5032283;28;20028;-74
2022/03/11 10:46:45;;;;;;;;;;;;;;;0.91;49.10;101626.72;5032765;28;20033;-74
2022/03/11 10:49:11;;;;;;;6.17;3.27;;;;;;;0.66;47.85;101593.00;5032302;28;19912;-76
2022/03/11 10:51:38;;;;;;;8.13;3.33;;;;;;;0.94;51.21;101625.34;5032591;28;20030;-78
2022/03/11 10:54:09;;;;;;;8.10;3.87;;;;;;;0.68;48.01;101611.84;5032400;28;20025;-76
2022/03/11 10:56:39;;;;;;;8.47;4.43;;;;;;;0.83;49.42;101602.22;5023241;28;20064;-76
2022/03/11 10:59:13;;;;;;;10.02;3.60;;;;;;;0.63;50.26;101616.47;5025452;28;20099;-77
2022/03/11 11:01:43;;;;;;;7.70;3.30;;;;;;;-0.05;47.92;101561.72;5028807;28;20029;-76
2022/03/11 11:04:12;;;;;;;8.47;3.40;;;;;;;0.48;48.47;101621.88;5032338;28;20025;-75
2022/03/11 11:06:38;;;;;;;10.03;4.20;;;;;;;0.77;50.48;101597.44;5027524;28;20029;-75
2022/03/11 11:09:06;;;;;;;6.03;3.37;;;;;;;0.87;46.60;101602.66;5033964;28;20279;-74
2022/03/11 11:11:34;;;;;;;7.60;4.20;;;;;;;0.82;47.32;101603.88;5029398;28;20039;-74
2022/03/11 11:14:04;;;;;;;14.17;4.17;;;;;;;0.71;47.40;101605.41;5038525;28;20090;-75
2022/03/11 11:16:30;;;;;;;16.77;4.30;;;;;;;0.21;45.97;101621.78;5032265;28;20058;-75
2022/03/11 11:18:58;;;;;;;18.23;6.07;;;;;;;0.07;46.61;101577.28;5014754;28;20026;-75